createdAt,value
2022-09-11T00:14:06.373Z,23
2022-09-11T00:30:40.543Z,23
2022-09-11T00:47:16.401Z,23
2022-09-11T01:03:51.521Z,24
2022-09-11T01:20:21.588Z,24
2022-09-11T01:36:51.700Z,24
2022-09-11T01:53:26.743Z,23
2022-09-11T02:10:01.588Z,24
2022-09-11T02:26:35.855Z,23
2022-09-11T02:43:10.361Z,23
2022-09-11T02:59:44.822Z,23
2022-09-11T03:16:20.676Z,23
2022-09-11T03:49:31.087Z,24
2022-09-11T04:06:05.756Z,24
2022-09-11T04:22:39.735Z,24
2022-09-11T04:39:14.093Z,24
2022-09-11T04:55:48.053Z,23
2022-09-11T05:28:53.737Z,23
2022-09-11T05:45:29.090Z,23
2022-09-11T06:01:59.057Z,23
2022-09-11T06:18:28.965Z,23
2022-09-11T06:35:04.999Z,23
2022-09-11T06:51:40.156Z,23
2022-09-11T07:08:15.163Z,22
2022-09-11T07:24:49.273Z,23
2022-09-11T07:41:24.586Z,22
2022-09-11T07:57:58.933Z,21
2022-09-11T08:14:30.280Z,21
2022-09-11T08:31:04.457Z,21
2022-09-11T08:47:39.359Z,21
2022-09-11T09:04:09.699Z,21
2022-09-11T09:20:44.846Z,21
2022-09-11T09:37:20.865Z,21
2022-09-11T09:53:51.869Z,22
2022-09-11T10:10:28.790Z,21
2022-09-11T10:27:05.685Z,21
2022-09-11T10:43:37.265Z,21
2022-09-11T11:00:14.994Z,19
2022-09-11T11:16:52.603Z,21
2022-09-11T11:50:08.625Z,21
2022-09-11T12:06:46.594Z,21
2022-09-11T12:23:25.011Z,22
2022-09-11T12:40:02.059Z,22
2022-09-11T12:56:38.756Z,22
2022-09-11T13:13:17.285Z,21
2022-09-11T13:29:53.994Z,22
2022-09-11T13:46:30.616Z,23
2022-09-11T14:03:07.103Z,24
2022-09-11T14:36:16.610Z,24
2022-09-11T14:52:49.224Z,24
2022-09-11T15:09:21.806Z,25
2022-09-11T15:25:58.283Z,24
2022-09-11T15:42:39.363Z,26
2022-09-11T15:59:11.714Z,27
2022-09-11T16:15:48.713Z,26
2022-09-11T16:49:02.819Z,27
2022-09-11T17:05:39.738Z,27
2022-09-11T17:22:16.933Z,27
2022-09-11T17:38:54.508Z,27
2022-09-11T17:55:30.975Z,25
2022-09-11T18:12:06.164Z,24
2022-09-11T18:28:41.640Z,23
2022-09-11T18:45:17.688Z,23
2022-09-11T19:01:53.750Z,24
2022-09-11T19:18:23.814Z,25
2022-09-11T19:35:00.146Z,27
2022-09-11T19:51:33.333Z,29
2022-09-11T20:08:10.825Z,34
2022-09-11T20:24:43.549Z,34
2022-09-11T20:41:18.544Z,37
2022-09-11T20:57:48.215Z,36
2022-09-11T21:14:17.810Z,38
2022-09-11T21:30:51.272Z,37
2022-09-11T21:47:25.399Z,40
2022-09-11T22:03:59.750Z,40
2022-09-11T22:20:33.575Z,40
2022-09-11T22:37:08.138Z,39
2022-09-11T22:53:41.688Z,38
2022-09-11T23:10:14.913Z,40
2022-09-11T23:26:49.333Z,40
2022-09-11T23:43:22.679Z,40
2022-09-11T23:59:56.500Z,40
